Date,TemperatureHighF,TemperatureAvgF,TemperatureLowF,DewpointHighF,DewpointAvgF,DewpointLowF,HumidityHigh,HumidityAvg,HumidityLow,PressureMaxIn,PressureMinIn,WindSpeedMaxMPH,WindSpeedAvgMPH,GustSpeedMaxMPH,PrecipitationSumIn
2012-12-1,47.0,41.3,34.0,47.0,39.5,33.0,100,93,81,0.00,40.00,6,4,12,0.01
2012-12-2,49.0,42.4,39.0,49.0,42.0,39.0,100,98,93,0.00,40.00,8,4,18,0.01
2012-12-3,60.0,49.5,39.0,60.0,48.8,39.0,100,98,84,0.00,40.00,12,6,26,0.08
2012-12-4,48.0,39.4,25.0,42.0,25.7,11.0,85,59,40,0.00,40.00,15,8,27,0.04
2012-12-5,33.0,24.8,14.0,26.0,15.6,10.0,93,69,47,0.00,40.00,6,3,12,0.00
2012-12-6,43.0,36.0,31.0,36.0,28.4,-99.9,84,78,69,0.00,40.00,10,6,19,0.00
2012-12-7,39.0,33.8,31.0,29.0,25.4,21.0,86,72,49,0.00,40.00,7,4,12,0.00
2012-12-8,37.0,30.3,28.0,25.0,23.3,21.0,82,75,58,0.00,40.00,5,4,10,0.00
2012-12-9,33.0,30.7,27.0,32.0,28.4,24.0,100,91,78,0.00,40.00,7,5,15,0.16
2012-12-10,31.0,26.9,22.0,31.0,23.6,21.0,100,88,72,0.00,40.00,8,4,13,0.11
2012-12-11,25.0,23.4,20.0,24.0,21.1,18.0,98,91,81,0.00,40.00,5,4,10,0.00
2012-12-12,40.0,28.4,14.0,26.0,21.3,13.0,99,77,55,0.00,40.00,10,4,21,0.01
2012-12-13,45.0,33.3,20.0,25.0,21.6,20.0,100,65,38,0.00,40.00,9,4,17,0.01
2012-12-14,41.0,29.0,19.0,34.0,25.3,19.0,100,88,55,0.00,40.00,7,3,12,0.00
2012-12-15,41.0,38.0,34.0,41.0,37.9,34.0,100,99,91,0.00,40.00,8,4,16,0.60
2012-12-16,40.0,36.7,32.0,40.0,36.5,32.0,100,99,95,0.00,40.00,9,5,18,0.09
2012-12-17,32.0,27.1,25.0,32.0,24.1,21.0,100,88,81,0.00,40.00,9,6,15,0.01
2012-12-18,28.0,25.2,20.0,27.0,24.1,20.0,100,95,86,0.00,40.00,6,2,10,0.01
2012-12-19,32.0,29.3,26.0,29.0,27.7,26.0,100,94,86,0.00,40.00,5,3,9,0.01
2012-12-20,33.0,30.6,29.0,33.0,30.6,28.0,100,100,94,0.00,40.00,16,10,32,0.69
2012-12-21,29.0,21.8,15.0,29.0,17.9,9.0,100,85,75,0.00,40.00,17,11,32,0.11
2012-12-22,29.0,13.0,1.0,16.0,7.9,-2.0,95,81,54,0.00,40.00,7,3,11,0.00
2012-12-23,28.0,16.6,3.0,19.0,12.4,0.0,97,84,62,0.00,40.00,7,3,14,0.00
2012-12-24,27.0,18.6,10.0,19.0,13.6,8.0,95,81,61,0.00,40.00,8,4,15,0.00
2012-12-25,28.0,15.9,7.0,14.0,8.5,3.0,91,74,47,0.00,40.00,7,4,15,0.00
2012-12-26,28.0,19.8,8.0,18.0,13.5,6.0,94,77,62,0.00,40.00,7,5,16,0.00
2012-12-27,27.0,22.3,17.0,17.0,15.8,14.0,91,76,62,0.00,40.00,5,4,11,0.00
2012-12-28,25.0,21.5,17.0,23.0,20.2,15.0,100,94,89,0.00,40.00,6,3,11,0.15
2012-12-29,26.0,22.1,14.0,24.0,19.7,11.0,100,90,82,0.00,40.00,10,6,18,0.05
2012-12-30,23.0,14.4,6.0,12.0,9.0,3.0,93,80,57,0.00,40.00,8,4,15,0.01
2012-12-31,23.0,13.6,-1.0,23.0,7.8,-5.0,98,78,59,0.00,40.00,12,6,19,0.00